sensor_id;sensor_type;location;lat;lon;timestamp;P1;durP1;ratioP1;P2;durP2;ratioP2
25467;SDS011;13384;24.794;110.498;2023-08-24T00:00:06;5.38;;;5.05;;
25467;SDS011;13384;24.794;110.498;2023-08-24T00:02:37;5.03;;;4.82;;
25467;SDS011;13384;24.794;110.498;2023-08-24T00:05:07;4.97;;;4.78;;
25467;SDS011;13384;24.794;110.498;2023-08-24T00:07:52;4.82;;;4.63;;
25467;SDS011;13384;24.794;110.498;2023-08-24T00:10:24;5.50;;;5.10;;
25467;SDS011;13384;24.794;110.498;2023-08-24T00:12:56;5.07;;;4.88;;
25467;SDS011;13384;24.794;110.498;2023-08-24T00:15:27;5.00;;;4.80;;
25467;SDS011;13384;24.794;110.498;2023-08-24T00:17:58;5.05;;;4.85;;
25467;SDS011;13384;24.794;110.498;2023-08-24T00:20:29;5.22;;;5.03;;
25467;SDS011;13384;24.794;110.498;2023-08-24T00:23:02;5.00;;;4.80;;
25467;SDS011;13384;24.794;110.498;2023-08-24T00:25:32;5.30;;;5.00;;
25467;SDS011;13384;24.794;110.498;2023-08-24T00:28:03;5.20;;;5.00;;
25467;SDS011;13384;24.794;110.498;2023-08-24T00:30:36;4.70;;;4.50;;
25467;SDS011;13384;24.794;110.498;2023-08-24T00:33:07;5.10;;;4.80;;
25467;SDS011;13384;24.794;110.498;2023-08-24T00:35:38;5.03;;;4.82;;
25467;SDS011;13384;24.794;110.498;2023-08-24T00:38:08;5.22;;;5.03;;
25467;SDS011;13384;24.794;110.498;2023-08-24T00:40:42;5.00;;;4.80;;
25467;SDS011;13384;24.794;110.498;2023-08-24T00:43:14;5.30;;;5.00;;
25467;SDS011;13384;24.794;110.498;2023-08-24T00:45:45;5.00;;;4.80;;
25467;SDS011;13384;24.794;110.498;2023-08-24T00:48:20;5.47;;;5.28;;
25467;SDS011;13384;24.794;110.498;2023-08-24T00:50:55;4.80;;;4.60;;
25467;SDS011;13384;24.794;110.498;2023-08-24T00:53:29;5.13;;;4.82;;
25467;SDS011;13384;24.794;110.498;2023-08-24T00:56:01;5.10;;;4.90;;
25467;SDS011;13384;24.794;110.498;2023-08-24T00:58:31;5.20;;;5.00;;
25467;SDS011;13384;24.794;110.498;2023-08-24T01:01:02;5.32;;;5.03;;
25467;SDS011;13384;24.794;110.498;2023-08-24T01:03:34;5.47;;;5.18;;
25467;SDS011;13384;24.794;110.498;2023-08-24T01:06:05;5.53;;;5.30;;
25467;SDS011;13384;24.794;110.498;2023-08-24T01:08:37;5.60;;;5.13;;
25467;SDS011;13384;24.794;110.498;2023-08-24T01:13:50;5.40;;;5.20;;
25467;SDS011;13384;24.794;110.498;2023-08-24T01:16:27;5.10;;;4.90;;
25467;SDS011;13384;24.794;110.498;2023-08-24T01:19:00;5.05;;;4.85;;
25467;SDS011;13384;24.794;110.498;2023-08-24T01:21:33;5.35;;;5.05;;
25467;SDS011;13384;24.794;110.498;2023-08-24T01:24:10;5.32;;;5.03;;
25467;SDS011;13384;24.794;110.498;2023-08-24T01:26:42;5.35;;;5.15;;
25467;SDS011;13384;24.794;110.498;2023-08-24T01:29:14;5.22;;;5.00;;
25467;SDS011;13384;24.794;110.498;2023-08-24T01:31:47;4.90;;;4.70;;
25467;SDS011;13384;24.794;110.498;2023-08-24T01:34:36;5.10;;;4.90;;
25467;SDS011;13384;24.794;110.498;2023-08-24T01:37:08;4.70;;;4.50;;
25467;SDS011;13384;24.794;110.498;2023-08-24T01:39:43;5.00;;;4.80;;
25467;SDS011;13384;24.794;110.498;2023-08-24T01:42:18;5.00;;;4.80;;
25467;SDS011;13384;24.794;110.498;2023-08-24T01:44:52;4.93;;;4.72;;
25467;SDS011;13384;24.794;110.498;2023-08-24T01:47:24;5.20;;;5.00;;
25467;SDS011;13384;24.794;110.498;2023-08-24T01:49:56;5.47;;;5.18;;
25467;SDS011;13384;24.794;110.498;2023-08-24T01:52:28;5.00;;;4.80;;
25467;SDS011;13384;24.794;110.498;2023-08-24T01:55:03;5.10;;;4.90;;
25467;SDS011;13384;24.794;110.498;2023-08-24T01:57:34;5.28;;;5.07;;
25467;SDS011;13384;24.794;110.498;2023-08-24T02:00:05;5.00;;;4.80;;
25467;SDS011;13384;24.794;110.498;2023-08-24T02:02:45;5.10;;;4.90;;
25467;SDS011;13384;24.794;110.498;2023-08-24T02:05:16;5.00;;;4.80;;
25467;SDS011;13384;24.794;110.498;2023-08-24T02:07:51;5.15;;;4.90;;
25467;SDS011;13384;24.794;110.498;2023-08-24T02:10:23;5.18;;;4.88;;
25467;SDS011;13384;24.794;110.498;2023-08-24T02:12:54;5.05;;;4.75;;
25467;SDS011;13384;24.794;110.498;2023-08-24T02:15:27;5.00;;;4.80;;
25467;SDS011;13384;24.794;110.498;2023-08-24T02:17:57;5.40;;;5.00;;
25467;SDS011;13384;24.794;110.498;2023-08-24T02:20:29;5.20;;;4.90;;
25467;SDS011;13384;24.794;110.498;2023-08-24T02:22:59;5.00;;;4.80;;
25467;SDS011;13384;24.794;110.498;2023-08-24T02:25:32;4.90;;;4.60;;
25467;SDS011;13384;24.794;110.498;2023-08-24T02:28:04;5.10;;;4.90;;
25467;SDS011;13384;24.794;110.498;2023-08-24T02:30:36;5.28;;;5.00;;
25467;SDS011;13384;24.794;110.498;2023-08-24T02:33:08;5.15;;;4.85;;
25467;SDS011;13384;24.794;110.498;2023-08-24T02:35:39;5.00;;;4.80;;
25467;SDS011;13384;24.794;110.498;2023-08-24T02:38:10;5.10;;;4.90;;
25467;SDS011;13384;24.794;110.498;2023-08-24T02:40:41;5.07;;;4.82;;
25467;SDS011;13384;24.794;110.498;2023-08-24T02:43:13;5.28;;;4.97;;
25467;SDS011;13384;24.794;110.498;2023-08-24T02:45:44;5.32;;;5.03;;
25467;SDS011;13384;24.794;110.498;2023-08-24T02:48:18;5.18;;;4.93;;
25467;SDS011;13384;24.794;110.498;2023-08-24T02:50:49;4.80;;;4.60;;
25467;SDS011;13384;24.794;110.498;2023-08-24T02:53:19;5.13;;;4.90;;
25467;SDS011;13384;24.794;110.498;2023-08-24T02:55:51;5.32;;;5.13;;
25467;SDS011;13384;24.794;110.498;2023-08-24T02:58:22;5.35;;;4.97;;
25467;SDS011;13384;24.794;110.498;2023-08-24T03:01:05;5.20;;;5.00;;
25467;SDS011;13384;24.794;110.498;2023-08-24T03:03:39;5.38;;;5.00;;
25467;SDS011;13384;24.794;110.498;2023-08-24T03:06:16;5.35;;;5.15;;
25467;SDS011;13384;24.794;110.498;2023-08-24T03:08:49;5.30;;;4.90;;
25467;SDS011;13384;24.794;110.498;2023-08-24T03:11:20;5.38;;;5.07;;
25467;SDS011;13384;24.794;110.498;2023-08-24T03:13:51;5.45;;;5.20;;
25467;SDS011;13384;24.794;110.498;2023-08-24T03:16:39;5.30;;;5.00;;
25467;SDS011;13384;24.794;110.498;2023-08-24T03:19:10;5.00;;;4.80;;
25467;SDS011;13384;24.794;110.498;2023-08-24T03:21:41;6.50;;;6.10;;
25467;SDS011;13384;24.794;110.498;2023-08-24T03:24:13;6.20;;;5.90;;
25467;SDS011;13384;24.794;110.498;2023-08-24T03:26:44;5.72;;;5.43;;
25467;SDS011;13384;24.794;110.498;2023-08-24T03:29:15;5.43;;;5.22;;
25467;SDS011;13384;24.794;110.498;2023-08-24T03:31:45;4.90;;;4.70;;
25467;SDS011;13384;24.794;110.498;2023-08-24T03:34:16;5.10;;;4.88;;
25467;SDS011;13384;24.794;110.498;2023-08-24T03:36:48;5.22;;;5.00;;
25467;SDS011;13384;24.794;110.498;2023-08-24T03:39:19;5.45;;;5.10;;
25467;SDS011;13384;24.794;110.498;2023-08-24T03:41:50;5.35;;;5.05;;
25467;SDS011;13384;24.794;110.498;2023-08-24T03:44:20;5.88;;;5.57;;
25467;SDS011;13384;24.794;110.498;2023-08-24T03:46:51;5.55;;;5.25;;
25467;SDS011;13384;24.794;110.498;2023-08-24T03:49:22;5.40;;;5.00;;
25467;SDS011;13384;24.794;110.498;2023-08-24T03:51:55;5.50;;;5.30;;
25467;SDS011;13384;24.794;110.498;2023-08-24T03:54:27;5.70;;;5.40;;
25467;SDS011;13384;24.794;110.498;2023-08-24T03:56:58;5.47;;;5.28;;
25467;SDS011;13384;24.794;110.498;2023-08-24T03:59:29;5.70;;;5.25;;
25467;SDS011;13384;24.794;110.498;2023-08-24T04:02:00;5.53;;;5.22;;
25467;SDS011;13384;24.794;110.498;2023-08-24T04:04:34;5.20;;;5.00;;
25467;SDS011;13384;24.794;110.498;2023-08-24T04:07:05;5.25;;;5.00;;
25467;SDS011;13384;24.794;110.498;2023-08-24T04:09:35;5.22;;;5.03;;
25467;SDS011;13384;24.794;110.498;2023-08-24T04:12:06;5.13;;;4.93;;
25467;SDS011;13384;24.794;110.498;2023-08-24T04:14:37;5.20;;;5.00;;
25467;SDS011;13384;24.794;110.498;2023-08-24T04:17:08;5.57;;;5.28;;
25467;SDS011;13384;24.794;110.498;2023-08-24T04:19:39;5.55;;;5.20;;
25467;SDS011;13384;24.794;110.498;2023-08-24T04:22:10;5.40;;;5.20;;
25467;SDS011;13384;24.794;110.498;2023-08-24T04:24:41;5.60;;;5.30;;
25467;SDS011;13384;24.794;110.498;2023-08-24T04:27:18;5.80;;;5.50;;
25467;SDS011;13384;24.794;110.498;2023-08-24T04:29:51;5.47;;;5.28;;
25467;SDS011;13384;24.794;110.498;2023-08-24T04:32:22;5.57;;;5.22;;
25467;SDS011;13384;24.794;110.498;2023-08-24T04:34:54;5.07;;;4.88;;
25467;SDS011;13384;24.794;110.498;2023-08-24T04:37:25;5.60;;;5.30;;
25467;SDS011;13384;24.794;110.498;2023-08-24T04:39:56;5.55;;;5.20;;
25467;SDS011;13384;24.794;110.498;2023-08-24T04:42:29;5.75;;;5.45;;
25467;SDS011;13384;24.794;110.498;2023-08-24T04:45:00;5.60;;;5.30;;
25467;SDS011;13384;24.794;110.498;2023-08-24T04:47:31;5.30;;;5.10;;
25467;SDS011;13384;24.794;110.498;2023-08-24T04:50:03;5.47;;;5.20;;
25467;SDS011;13384;24.794;110.498;2023-08-24T04:52:35;5.22;;;4.93;;
25467;SDS011;13384;24.794;110.498;2023-08-24T04:55:06;5.40;;;5.20;;
25467;SDS011;13384;24.794;110.498;2023-08-24T04:57:38;5.38;;;5.18;;
25467;SDS011;13384;24.794;110.498;2023-08-24T05:00:09;5.68;;;5.38;;
25467;SDS011;13384;24.794;110.498;2023-08-24T05:02:45;5.50;;;5.30;;
25467;SDS011;13384;24.794;110.498;2023-08-24T05:05:16;5.30;;;5.10;;
25467;SDS011;13384;24.794;110.498;2023-08-24T05:07:50;5.60;;;5.20;;
25467;SDS011;13384;24.794;110.498;2023-08-24T05:13:01;5.60;;;5.30;;
25467;SDS011;13384;24.794;110.498;2023-08-24T05:15:34;6.00;;;5.70;;
25467;SDS011;13384;24.794;110.498;2023-08-24T05:18:05;5.20;;;5.00;;
25467;SDS011;13384;24.794;110.498;2023-08-24T05:20:36;5.93;;;5.63;;
25467;SDS011;13384;24.794;110.498;2023-08-24T05:23:09;5.80;;;5.40;;
25467;SDS011;13384;24.794;110.498;2023-08-24T05:25:40;5.40;;;5.10;;
25467;SDS011;13384;24.794;110.498;2023-08-24T05:28:13;5.65;;;5.35;;
25467;SDS011;13384;24.794;110.498;2023-08-24T05:30:44;5.65;;;5.25;;
25467;SDS011;13384;24.794;110.498;2023-08-24T05:33:15;5.60;;;5.35;;
25467;SDS011;13384;24.794;110.498;2023-08-24T05:35:47;5.75;;;5.45;;
25467;SDS011;13384;24.794;110.498;2023-08-24T05:38:19;6.20;;;5.70;;
25467;SDS011;13384;24.794;110.498;2023-08-24T05:40:50;5.45;;;5.20;;
25467;SDS011;13384;24.794;110.498;2023-08-24T05:43:26;5.80;;;5.50;;
25467;SDS011;13384;24.794;110.498;2023-08-24T05:45:59;5.53;;;5.33;;
25467;SDS011;13384;24.794;110.498;2023-08-24T05:48:31;5.65;;;5.35;;
25467;SDS011;13384;24.794;110.498;2023-08-24T05:51:01;5.40;;;5.10;;
25467;SDS011;13384;24.794;110.498;2023-08-24T05:53:32;5.43;;;5.13;;
25467;SDS011;13384;24.794;110.498;2023-08-24T05:56:06;5.00;;;4.80;;
25467;SDS011;13384;24.794;110.498;2023-08-24T05:58:42;5.28;;;5.07;;
25467;SDS011;13384;24.794;110.498;2023-08-24T06:01:18;5.32;;;5.13;;
25467;SDS011;13384;24.794;110.498;2023-08-24T06:03:50;5.57;;;5.30;;
25467;SDS011;13384;24.794;110.498;2023-08-24T06:06:22;5.43;;;5.22;;
25467;SDS011;13384;24.794;110.498;2023-08-24T06:08:53;5.50;;;5.10;;
25467;SDS011;13384;24.794;110.498;2023-08-24T06:11:24;5.18;;;4.88;;
25467;SDS011;13384;24.794;110.498;2023-08-24T06:13:59;5.28;;;4.97;;
25467;SDS011;13384;24.794;110.498;2023-08-24T06:16:35;5.20;;;5.00;;
25467;SDS011;13384;24.794;110.498;2023-08-24T06:19:06;5.25;;;5.05;;
25467;SDS011;13384;24.794;110.498;2023-08-24T06:21:40;5.63;;;5.40;;
25467;SDS011;13384;24.794;110.498;2023-08-24T06:24:11;5.30;;;5.10;;
25467;SDS011;13384;24.794;110.498;2023-08-24T06:26:42;5.38;;;5.18;;
25467;SDS011;13384;24.794;110.498;2023-08-24T06:29:13;5.30;;;5.10;;
25467;SDS011;13384;24.794;110.498;2023-08-24T06:31:45;5.43;;;5.13;;
25467;SDS011;13384;24.794;110.498;2023-08-24T06:34:16;5.57;;;5.28;;
25467;SDS011;13384;24.794;110.498;2023-08-24T06:36:53;5.32;;;4.93;;
25467;SDS011;13384;24.794;110.498;2023-08-24T06:39:25;5.15;;;4.95;;
25467;SDS011;13384;24.794;110.498;2023-08-24T06:41:55;5.30;;;5.10;;
25467;SDS011;13384;24.794;110.498;2023-08-24T06:44:26;5.50;;;5.20;;
25467;SDS011;13384;24.794;110.498;2023-08-24T06:46:57;5.95;;;5.65;;
25467;SDS011;13384;24.794;110.498;2023-08-24T06:49:32;6.40;;;6.00;;
25467;SDS011;13384;24.794;110.498;2023-08-24T06:52:03;6.25;;;5.95;;
25467;SDS011;13384;24.794;110.498;2023-08-24T06:54:34;5.97;;;5.68;;
25467;SDS011;13384;24.794;110.498;2023-08-24T06:57:05;6.40;;;6.00;;
25467;SDS011;13384;24.794;110.498;2023-08-24T06:59:37;6.13;;;5.72;;
25467;SDS011;13384;24.794;110.498;2023-08-24T07:02:08;6.00;;;5.70;;
25467;SDS011;13384;24.794;110.498;2023-08-24T07:04:39;6.60;;;6.20;;
25467;SDS011;13384;24.794;110.498;2023-08-24T07:07:10;7.18;;;6.78;;
25467;SDS011;13384;24.794;110.498;2023-08-24T07:09:41;7.00;;;6.60;;
25467;SDS011;13384;24.794;110.498;2023-08-24T07:12:13;6.93;;;6.43;;
25467;SDS011;13384;24.794;110.498;2023-08-24T07:14:43;7.38;;;6.90;;
25467;SDS011;13384;24.794;110.498;2023-08-24T07:17:15;6.85;;;6.45;;
25467;SDS011;13384;24.794;110.498;2023-08-24T07:19:45;6.55;;;6.15;;
25467;SDS011;13384;24.794;110.498;2023-08-24T07:22:16;7.32;;;6.80;;
25467;SDS011;13384;24.794;110.498;2023-08-24T07:24:47;7.63;;;7.03;;
25467;SDS011;13384;24.794;110.498;2023-08-24T07:27:21;6.63;;;6.22;;
25467;SDS011;13384;24.794;110.498;2023-08-24T07:29:52;8.55;;;6.30;;
25467;SDS011;13384;24.794;110.498;2023-08-24T07:32:27;6.22;;;5.88;;
25467;SDS011;13384;24.794;110.498;2023-08-24T07:34:58;7.20;;;6.70;;
25467;SDS011;13384;24.794;110.498;2023-08-24T07:37:29;7.20;;;6.70;;
25467;SDS011;13384;24.794;110.498;2023-08-24T07:40:00;6.63;;;6.22;;
25467;SDS011;13384;24.794;110.498;2023-08-24T07:42:42;6.80;;;6.40;;
25467;SDS011;13384;24.794;110.498;2023-08-24T07:45:13;6.22;;;5.93;;
25467;SDS011;13384;24.794;110.498;2023-08-24T07:47:44;6.70;;;6.30;;
25467;SDS011;13384;24.794;110.498;2023-08-24T07:50:16;6.60;;;6.20;;
25467;SDS011;13384;24.794;110.498;2023-08-24T07:52:48;7.15;;;6.70;;
25467;SDS011;13384;24.794;110.498;2023-08-24T07:55:24;6.95;;;6.45;;
25467;SDS011;13384;24.794;110.498;2023-08-24T07:58:08;6.88;;;6.28;;
25467;SDS011;13384;24.794;110.498;2023-08-24T08:00:50;5.90;;;5.60;;
25467;SDS011;13384;24.794;110.498;2023-08-24T08:03:25;6.15;;;5.75;;
25467;SDS011;13384;24.794;110.498;2023-08-24T08:05:56;6.40;;;6.00;;
25467;SDS011;13384;24.794;110.498;2023-08-24T08:08:28;5.85;;;5.50;;
25467;SDS011;13384;24.794;110.498;2023-08-24T08:10:59;5.70;;;5.40;;
25467;SDS011;13384;24.794;110.498;2023-08-24T08:13:31;5.68;;;5.38;;
25467;SDS011;13384;24.794;110.498;2023-08-24T08:16:14;5.68;;;5.38;;
25467;SDS011;13384;24.794;110.498;2023-08-24T08:18:45;6.05;;;5.75;;
25467;SDS011;13384;24.794;110.498;2023-08-24T08:21:16;6.43;;;6.10;;
25467;SDS011;13384;24.794;110.498;2023-08-24T08:23:49;5.85;;;5.55;;
25467;SDS011;13384;24.794;110.498;2023-08-24T08:26:20;5.80;;;5.50;;
25467;SDS011;13384;24.794;110.498;2023-08-24T08:28:51;5.57;;;5.28;;
25467;SDS011;13384;24.794;110.498;2023-08-24T08:31:22;5.88;;;5.57;;
25467;SDS011;13384;24.794;110.498;2023-08-24T08:33:53;5.60;;;5.30;;
25467;SDS011;13384;24.794;110.498;2023-08-24T08:36:27;5.55;;;5.30;;
25467;SDS011;13384;24.794;110.498;2023-08-24T08:38:58;5.35;;;5.15;;
25467;SDS011;13384;24.794;110.498;2023-08-24T08:41:41;5.70;;;5.40;;
25467;SDS011;13384;24.794;110.498;2023-08-24T08:44:13;5.38;;;5.18;;
25467;SDS011;13384;24.794;110.498;2023-08-24T08:46:46;5.50;;;5.30;;
25467;SDS011;13384;24.794;110.498;2023-08-24T08:49:16;5.03;;;4.82;;
25467;SDS011;13384;24.794;110.498;2023-08-24T08:51:48;5.30;;;5.10;;
25467;SDS011;13384;24.794;110.498;2023-08-24T08:54:20;5.45;;;5.25;;
25467;SDS011;13384;24.794;110.498;2023-08-24T08:56:52;5.63;;;5.32;;
25467;SDS011;13384;24.794;110.498;2023-08-24T08:59:23;5.25;;;5.03;;
25467;SDS011;13384;24.794;110.498;2023-08-24T09:01:58;5.50;;;5.22;;
25467;SDS011;13384;24.794;110.498;2023-08-24T09:04:32;5.57;;;5.32;;
25467;SDS011;13384;24.794;110.498;2023-08-24T09:07:04;5.68;;;5.38;;
25467;SDS011;13384;24.794;110.498;2023-08-24T09:09:39;5.60;;;5.30;;
25467;SDS011;13384;24.794;110.498;2023-08-24T09:12:14;5.55;;;5.30;;
25467;SDS011;13384;24.794;110.498;2023-08-24T09:14:48;5.50;;;5.20;;
25467;SDS011;13384;24.794;110.498;2023-08-24T09:17:20;5.38;;;5.07;;
25467;SDS011;13384;24.794;110.498;2023-08-24T09:19:52;5.45;;;5.15;;
25467;SDS011;13384;24.794;110.498;2023-08-24T09:22:23;5.43;;;5.22;;
25467;SDS011;13384;24.794;110.498;2023-08-24T09:24:54;5.30;;;5.10;;
25467;SDS011;13384;24.794;110.498;2023-08-24T09:27:35;5.63;;;5.22;;
25467;SDS011;13384;24.794;110.498;2023-08-24T09:30:06;5.60;;;5.30;;
25467;SDS011;13384;24.794;110.498;2023-08-24T09:32:37;5.57;;;5.18;;
25467;SDS011;13384;24.794;110.498;2023-08-24T09:35:09;5.80;;;5.40;;
25467;SDS011;13384;24.794;110.498;2023-08-24T09:37:40;5.10;;;4.90;;
25467;SDS011;13384;24.794;110.498;2023-08-24T09:40:14;5.40;;;5.20;;
25467;SDS011;13384;24.794;110.498;2023-08-24T09:42:45;5.32;;;5.10;;
25467;SDS011;13384;24.794;110.498;2023-08-24T09:45:17;5.55;;;5.28;;
25467;SDS011;13384;24.794;110.498;2023-08-24T09:47:51;5.65;;;5.35;;
25467;SDS011;13384;24.794;110.498;2023-08-24T09:50:22;5.45;;;5.20;;
25467;SDS011;13384;24.794;110.498;2023-08-24T09:52:53;5.72;;;5.43;;
25467;SDS011;13384;24.794;110.498;2023-08-24T09:55:28;5.75;;;5.45;;
25467;SDS011;13384;24.794;110.498;2023-08-24T09:58:00;5.45;;;5.20;;
25467;SDS011;13384;24.794;110.498;2023-08-24T10:00:33;5.30;;;5.00;;
25467;SDS011;13384;24.794;110.498;2023-08-24T10:03:04;5.85;;;5.55;;
25467;SDS011;13384;24.794;110.498;2023-08-24T10:05:35;5.85;;;5.55;;
25467;SDS011;13384;24.794;110.498;2023-08-24T10:08:26;5.72;;;5.43;;
25467;SDS011;13384;24.794;110.498;2023-08-24T10:10:57;5.28;;;5.07;;
25467;SDS011;13384;24.794;110.498;2023-08-24T10:16:25;5.85;;;5.55;;
25467;SDS011;13384;24.794;110.498;2023-08-24T10:18:58;5.80;;;5.50;;
25467;SDS011;13384;24.794;110.498;2023-08-24T10:21:28;5.60;;;5.30;;
25467;SDS011;13384;24.794;110.498;2023-08-24T10:23:59;7.10;;;6.28;;
25467;SDS011;13384;24.794;110.498;2023-08-24T10:26:32;6.10;;;5.60;;
25467;SDS011;13384;24.794;110.498;2023-08-24T10:29:03;5.60;;;5.30;;
25467;SDS011;13384;24.794;110.498;2023-08-24T10:31:35;9.48;;;7.50;;
25467;SDS011;13384;24.794;110.498;2023-08-24T10:34:06;103.07;;;60.60;;
25467;SDS011;13384;24.794;110.498;2023-08-24T10:36:48;94.72;;;64.90;;
25467;SDS011;13384;24.794;110.498;2023-08-24T10:39:29;58.33;;;49.75;;
25467;SDS011;13384;24.794;110.498;2023-08-24T10:42:01;11.20;;;10.10;;
25467;SDS011;13384;24.794;110.498;2023-08-24T10:44:35;22.38;;;16.45;;
25467;SDS011;13384;24.794;110.498;2023-08-24T10:49:44;8.02;;;7.53;;
25467;SDS011;13384;24.794;110.498;2023-08-24T10:55:21;4.93;;;4.72;;
25467;SDS011;13384;24.794;110.498;2023-08-24T10:57:56;4.80;;;4.60;;
25467;SDS011;13384;24.794;110.498;2023-08-24T11:00:40;4.40;;;4.25;;
25467;SDS011;13384;24.794;110.498;2023-08-24T11:03:30;4.35;;;4.25;;
25467;SDS011;13384;24.794;110.498;2023-08-24T11:06:17;4.55;;;4.43;;
25467;SDS011;13384;24.794;110.498;2023-08-24T11:08:49;4.40;;;4.30;;
25467;SDS011;13384;24.794;110.498;2023-08-24T11:11:23;5.07;;;4.88;;
25467;SDS011;13384;24.794;110.498;2023-08-24T11:16:48;4.40;;;4.30;;
25467;SDS011;13384;24.794;110.498;2023-08-24T11:19:19;4.75;;;4.55;;
25467;SDS011;13384;24.794;110.498;2023-08-24T11:21:51;4.30;;;4.20;;
25467;SDS011;13384;24.794;110.498;2023-08-24T11:24:22;4.20;;;4.10;;
25467;SDS011;13384;24.794;110.498;2023-08-24T11:26:58;4.40;;;4.30;;
25467;SDS011;13384;24.794;110.498;2023-08-24T11:29:32;4.32;;;4.22;;
25467;SDS011;13384;24.794;110.498;2023-08-24T11:32:03;4.40;;;4.30;;
25467;SDS011;13384;24.794;110.498;2023-08-24T11:34:34;4.60;;;4.50;;
25467;SDS011;13384;24.794;110.498;2023-08-24T11:37:05;4.72;;;4.53;;
25467;SDS011;13384;24.794;110.498;2023-08-24T11:39:36;4.13;;;4.03;;
25467;SDS011;13384;24.794;110.498;2023-08-24T11:44:44;4.30;;;4.20;;
25467;SDS011;13384;24.794;110.498;2023-08-24T11:47:21;4.20;;;4.10;;
25467;SDS011;13384;24.794;110.498;2023-08-24T11:49:54;4.50;;;4.40;;
25467;SDS011;13384;24.794;110.498;2023-08-24T11:52:28;4.30;;;4.20;;
25467;SDS011;13384;24.794;110.498;2023-08-24T11:55:01;4.45;;;4.25;;
25467;SDS011;13384;24.794;110.498;2023-08-24T11:57:34;4.40;;;4.30;;
25467;SDS011;13384;24.794;110.498;2023-08-24T12:00:05;4.45;;;4.35;;
25467;SDS011;13384;24.794;110.498;2023-08-24T12:02:37;4.43;;;4.22;;
25467;SDS011;13384;24.794;110.498;2023-08-24T12:05:19;4.90;;;4.70;;
25467;SDS011;13384;24.794;110.498;2023-08-24T12:07:52;4.20;;;4.10;;
25467;SDS011;13384;24.794;110.498;2023-08-24T12:10:23;4.25;;;4.15;;
25467;SDS011;13384;24.794;110.498;2023-08-24T12:13:03;4.25;;;4.15;;
25467;SDS011;13384;24.794;110.498;2023-08-24T12:15:43;4.57;;;4.38;;
25467;SDS011;13384;24.794;110.498;2023-08-24T12:18:14;4.10;;;4.00;;
25467;SDS011;13384;24.794;110.498;2023-08-24T12:20:45;4.85;;;4.65;;
25467;SDS011;13384;24.794;110.498;2023-08-24T12:23:16;4.30;;;4.20;;
25467;SDS011;13384;24.794;110.498;2023-08-24T12:28:30;4.60;;;4.50;;
25467;SDS011;13384;24.794;110.498;2023-08-24T12:31:04;4.45;;;4.35;;
25467;SDS011;13384;24.794;110.498;2023-08-24T12:34:03;4.70;;;4.50;;
25467;SDS011;13384;24.794;110.498;2023-08-24T12:36:37;4.75;;;4.55;;
25467;SDS011;13384;24.794;110.498;2023-08-24T12:39:11;4.07;;;3.97;;
25467;SDS011;13384;24.794;110.498;2023-08-24T12:41:45;4.10;;;4.00;;
25467;SDS011;13384;24.794;110.498;2023-08-24T12:44:16;4.72;;;4.53;;
25467;SDS011;13384;24.794;110.498;2023-08-24T12:46:47;4.40;;;4.30;;
25467;SDS011;13384;24.794;110.498;2023-08-24T12:49:18;4.55;;;4.43;;
25467;SDS011;13384;24.794;110.498;2023-08-24T12:51:51;8.23;;;4.47;;
25467;SDS011;13384;24.794;110.498;2023-08-24T12:54:35;5.60;;;5.07;;
25467;SDS011;13384;24.794;110.498;2023-08-24T12:57:06;5.00;;;4.78;;
25467;SDS011;13384;24.794;110.498;2023-08-24T12:59:38;5.18;;;4.95;;
25467;SDS011;13384;24.794;110.498;2023-08-24T13:02:11;6.32;;;5.70;;
25467;SDS011;13384;24.794;110.498;2023-08-24T13:04:56;5.32;;;5.03;;
25467;SDS011;13384;24.794;110.498;2023-08-24T13:07:30;5.45;;;5.15;;
25467;SDS011;13384;24.794;110.498;2023-08-24T13:10:03;5.70;;;5.40;;
25467;SDS011;13384;24.794;110.498;2023-08-24T13:12:35;5.40;;;5.20;;
25467;SDS011;13384;24.794;110.498;2023-08-24T13:15:06;5.50;;;5.28;;
25467;SDS011;13384;24.794;110.498;2023-08-24T13:17:48;4.78;;;4.60;;
25467;SDS011;13384;24.794;110.498;2023-08-24T13:20:32;4.90;;;4.70;;
25467;SDS011;13384;24.794;110.498;2023-08-24T13:23:02;5.18;;;4.97;;
25467;SDS011;13384;24.794;110.498;2023-08-24T13:25:33;4.88;;;4.68;;
25467;SDS011;13384;24.794;110.498;2023-08-24T13:28:05;5.13;;;4.90;;
25467;SDS011;13384;24.794;110.498;2023-08-24T13:30:36;7.95;;;5.47;;
25467;SDS011;13384;24.794;110.498;2023-08-24T13:33:06;5.00;;;4.80;;
25467;SDS011;13384;24.794;110.498;2023-08-24T13:35:37;4.70;;;4.50;;
25467;SDS011;13384;24.794;110.498;2023-08-24T13:38:10;5.72;;;5.18;;
25467;SDS011;13384;24.794;110.498;2023-08-24T13:40:40;5.10;;;4.85;;
25467;SDS011;13384;24.794;110.498;2023-08-24T13:43:15;5.30;;;5.10;;
25467;SDS011;13384;24.794;110.498;2023-08-24T13:45:45;5.35;;;5.15;;
25467;SDS011;13384;24.794;110.498;2023-08-24T13:48:20;4.80;;;4.60;;
25467;SDS011;13384;24.794;110.498;2023-08-24T13:50:51;4.38;;;4.28;;
25467;SDS011;13384;24.794;110.498;2023-08-24T13:53:22;5.13;;;4.82;;
25467;SDS011;13384;24.794;110.498;2023-08-24T13:55:53;4.68;;;4.50;;
25467;SDS011;13384;24.794;110.498;2023-08-24T13:58:28;4.20;;;4.07;;
25467;SDS011;13384;24.794;110.498;2023-08-24T14:00:59;4.80;;;4.60;;
25467;SDS011;13384;24.794;110.498;2023-08-24T14:03:32;5.05;;;4.85;;
25467;SDS011;13384;24.794;110.498;2023-08-24T14:06:04;4.88;;;4.68;;
25467;SDS011;13384;24.794;110.498;2023-08-24T14:08:35;5.90;;;4.43;;
25467;SDS011;13384;24.794;110.498;2023-08-24T14:11:06;4.60;;;4.50;;
25467;SDS011;13384;24.794;110.498;2023-08-24T14:13:40;4.90;;;4.50;;
25467;SDS011;13384;24.794;110.498;2023-08-24T14:16:11;4.60;;;4.50;;
25467;SDS011;13384;24.794;110.498;2023-08-24T14:18:42;4.50;;;4.40;;
25467;SDS011;13384;24.794;110.498;2023-08-24T14:21:15;4.43;;;4.32;;
25467;SDS011;13384;24.794;110.498;2023-08-24T14:24:12;4.55;;;4.45;;
25467;SDS011;13384;24.794;110.498;2023-08-24T14:26:44;4.45;;;4.35;;
25467;SDS011;13384;24.794;110.498;2023-08-24T14:29:16;4.53;;;4.40;;
25467;SDS011;13384;24.794;110.498;2023-08-24T14:31:47;4.65;;;4.47;;
25467;SDS011;13384;24.794;110.498;2023-08-24T14:34:21;4.97;;;4.78;;
25467;SDS011;13384;24.794;110.498;2023-08-24T14:36:52;4.40;;;4.30;;
25467;SDS011;13384;24.794;110.498;2023-08-24T14:39:24;5.65;;;4.93;;
25467;SDS011;13384;24.794;110.498;2023-08-24T14:41:55;4.68;;;4.50;;
25467;SDS011;13384;24.794;110.498;2023-08-24T14:44:28;4.40;;;4.30;;
25467;SDS011;13384;24.794;110.498;2023-08-24T14:47:01;4.65;;;4.45;;
25467;SDS011;13384;24.794;110.498;2023-08-24T14:49:37;4.50;;;4.40;;
25467;SDS011;13384;24.794;110.498;2023-08-24T14:52:08;4.80;;;4.60;;
25467;SDS011;13384;24.794;110.498;2023-08-24T14:54:39;5.18;;;4.97;;
25467;SDS011;13384;24.794;110.498;2023-08-24T14:57:10;4.90;;;4.70;;
25467;SDS011;13384;24.794;110.498;2023-08-24T14:59:54;4.18;;;4.07;;
25467;SDS011;13384;24.794;110.498;2023-08-24T15:02:28;4.30;;;4.20;;
25467;SDS011;13384;24.794;110.498;2023-08-24T15:04:59;4.10;;;4.00;;
25467;SDS011;13384;24.794;110.498;2023-08-24T15:07:40;4.85;;;4.60;;
25467;SDS011;13384;24.794;110.498;2023-08-24T15:10:10;4.38;;;4.28;;
25467;SDS011;13384;24.794;110.498;2023-08-24T15:12:47;5.35;;;5.15;;
25467;SDS011;13384;24.794;110.498;2023-08-24T15:15:29;4.25;;;4.15;;